Time;durP1;ratioP1;P1;durP2;ratioP2;P2;SDS_P1;SDS_P2;PMS_P1;PMS_P2;Temp;Humidity;BMP_temperature;BMP_pressure;BME280_temperature;BME280_humidity;BME280_pressure;Samples;Min_cycle;Max_cycle;Signal;HPM_P1;HPM_P2
2022/11/23 00:00:20;;;;;;;48.00;27.92;;;2.40;1.00;;;;;;5078012;28;20626;-77
2022/11/23 00:02:47;;;;;;;58.42;31.52;;;2.50;1.00;;;;;;5084788;28;20242;-80
2022/11/23 00:05:20;;;;;;;48.17;29.25;;;2.50;1.00;;;;;;5092797;28;20230;-79
2022/11/23 00:07:47;;;;;;;47.00;27.25;;;2.40;1.00;;;;;;5101694;27;20962;-77
2022/11/23 00:10:19;;;;;;;46.05;27.17;;;2.50;1.00;;;;;;5084910;28;20249;-78
2022/11/23 00:12:46;;;;;;;55.55;29.83;;;2.60;1.00;;;;;;5080100;28;20274;-80
2022/11/23 00:15:15;;;;;;;45.10;28.05;;;2.50;1.00;;;;;;5082741;28;20250;-80
2022/11/23 00:17:47;;;;;;;50.80;30.15;;;2.30;1.00;;;;;;5075043;28;20244;-81
2022/11/23 00:20:17;;;;;;;53.03;30.73;;;2.20;1.00;;;;;;5084309;28;20235;-80
2022/11/23 00:22:44;;;;;;;44.45;25.95;;;2.10;1.00;;;;;;5080650;28;20234;-80
2022/11/23 00:25:11;;;;;;;54.03;28.90;;;2.20;1.00;;;;;;5079817;28;20328;-81
2022/11/23 00:27:38;;;;;;;45.25;28.95;;;2.20;1.00;;;;;;5076628;28;20681;-81
2022/11/23 00:30:05;;;;;;;51.10;28.35;;;2.10;1.00;;;;;;5080735;28;20241;-80
2022/11/23 00:32:34;;;;;;;53.65;30.65;;;2.00;1.00;;;;;;5077183;28;20320;-80
2022/11/23 00:35:01;;;;;;;52.10;25.95;;;2.00;1.00;;;;;;5078980;28;20265;-82
2022/11/23 00:37:32;;;;;;;48.13;26.48;;;2.10;1.00;;;;;;5081689;27;20234;-82
2022/11/23 00:39:59;;;;;;;56.08;31.60;;;2.20;1.00;;;;;;5078691;28;20294;-82
2022/11/23 00:42:30;;;;;;;51.90;31.45;;;2.30;1.00;;;;;;5076909;28;20269;-80
2022/11/23 00:44:57;;;;;;;51.40;30.35;;;2.40;1.00;;;;;;5087623;28;20267;-79
2022/11/23 00:47:27;;;;;;;55.45;30.60;;;2.40;1.00;;;;;;5088937;27;21041;-81
2022/11/23 00:49:56;;;;;;;48.50;28.80;;;2.40;1.00;;;;;;5080027;28;20319;-78
2022/11/23 00:52:23;;;;;;;46.90;27.75;;;2.20;1.00;;;;;;5089478;27;20249;-78
2022/11/23 00:54:54;;;;;;;54.15;29.40;;;2.40;1.00;;;;;;5096537;27;20632;-79
2022/11/23 00:57:21;;;;;;;54.53;28.80;;;2.40;1.00;;;;;;5096026;27;20316;-78
2022/11/23 00:59:48;;;;;;;50.67;29.08;;;2.40;1.00;;;;;;5085476;28;20251;-81
2022/11/23 01:02:15;;;;;;;47.30;25.90;;;2.40;1.00;;;;;;5067798;28;20235;-79
2022/11/23 01:04:42;;;;;;;48.90;28.52;;;2.60;1.00;;;;;;5077829;28;20272;-79
2022/11/23 01:07:11;;;;;;;49.03;27.73;;;2.60;1.00;;;;;;5093710;27;20387;-78
2022/11/23 01:09:38;;;;;;;50.85;28.60;;;2.70;1.00;;;;;;5082672;27;20262;-78
2022/11/23 01:12:07;;;;;;;47.40;29.02;;;2.70;1.00;;;;;;5081354;27;20384;-80
2022/11/23 01:14:34;;;;;;;46.90;25.17;;;2.70;1.00;;;;;;5069757;28;20789;-79
2022/11/23 01:17:03;;;;;;;44.80;26.67;;;2.50;1.00;;;;;;5074590;28;20234;-78
2022/11/23 01:19:32;;;;;;;46.45;28.33;;;2.60;1.00;;;;;;5071621;28;20246;-77
2022/11/23 01:21:59;;;;;;;51.15;29.35;;;2.60;1.00;;;;;;5081952;28;20269;-78
2022/11/23 01:24:26;;;;;;;46.97;27.70;;;2.40;1.00;;;;;;5075052;28;20328;-77
2022/11/23 01:26:54;;;;;;;51.75;27.52;;;2.30;1.00;;;;;;5067820;28;20939;-80
2022/11/23 01:29:23;;;;;;;43.25;26.45;;;2.30;1.00;;;;;;5081511;28;20310;-81
2022/11/23 01:31:50;;;;;;;46.55;28.38;;;2.60;1.00;;;;;;5073592;28;20237;-82
2022/11/23 01:34:17;;;;;;;49.85;29.30;;;2.70;1.00;;;;;;5071233;28;20265;-81
2022/11/23 01:36:45;;;;;;;44.58;27.38;;;2.60;1.00;;;;;;5071850;28;20245;-79
2022/11/23 01:39:16;;;;;;;45.15;28.05;;;2.60;1.00;;;;;;5069422;28;20241;-79
2022/11/23 01:41:44;;;;;;;46.88;28.65;;;2.70;1.00;;;;;;5074487;28;20776;-81
2022/11/23 01:44:26;;;;;;;46.53;29.20;;;2.60;1.00;;;;;;5073946;28;20248;-82
2022/11/23 01:46:54;;;;;;;46.95;26.98;;;2.80;1.00;;;;;;5075837;28;22312;-82
2022/11/23 01:49:25;;;;;;;45.28;24.65;;;2.70;1.00;;;;;;5076297;28;20258;-79
2022/11/23 01:52:00;;;;;;;50.10;28.60;;;2.80;1.00;;;;;;5077224;28;20244;-78
2022/11/23 01:54:32;;;;;;;43.33;26.50;;;2.90;1.00;;;;;;5069852;28;20269;-78
2022/11/23 01:57:06;;;;;;;48.60;30.02;;;3.10;1.00;;;;;;5092113;28;20254;-80
2022/11/23 01:59:47;;;;;;;41.90;25.05;;;2.90;1.00;;;;;;5076823;28;20246;-80
2022/11/23 02:02:20;;;;;;;49.60;28.73;;;2.80;1.00;;;;;;5086136;27;20239;-81
2022/11/23 02:04:50;;;;;;;48.70;28.85;;;2.80;1.00;;;;;;5076977;28;21144;-79
2022/11/23 02:07:23;;;;;;;48.50;30.10;;;2.80;1.00;;;;;;5086026;28;20261;-80
2022/11/23 02:09:51;;;;;;;44.78;29.98;;;2.90;1.00;;;;;;5083019;28;20905;-81
2022/11/23 02:12:21;;;;;;;43.88;27.17;;;2.90;1.00;;;;;;5079781;28;21055;-81
2022/11/23 02:14:50;;;;;;;45.53;27.70;;;2.80;1.00;;;;;;5076771;28;20273;-78
2022/11/23 02:17:21;;;;;;;44.63;27.65;;;2.80;1.00;;;;;;5080315;28;20227;-82
2022/11/23 02:20:03;;;;;;;41.92;25.17;;;2.90;1.00;;;;;;5080219;28;20255;-80
2022/11/23 02:22:40;;;;;;;45.97;27.48;;;3.10;1.00;;;;;;5075649;28;20346;-80
2022/11/23 02:25:13;;;;;;;42.13;26.08;;;3.10;1.00;;;;;;5090913;27;20301;-80
2022/11/23 02:27:45;;;;;;;47.05;26.90;;;3.00;1.00;;;;;;5096352;27;20212;-78
2022/11/23 02:30:12;;;;;;;43.90;27.92;;;3.00;1.00;;;;;;5079492;27;20273;-80
2022/11/23 02:32:41;;;;;;;42.47;26.58;;;3.10;1.00;;;;;;5101785;27;20628;-80
2022/11/23 02:35:11;;;;;;;43.55;25.70;;;3.00;1.00;;;;;;5080612;28;20313;-80
2022/11/23 02:37:38;;;;;;;45.70;27.33;;;3.00;1.00;;;;;;5072241;28;20330;-79
2022/11/23 02:40:17;;;;;;;50.15;28.35;;;2.90;1.00;;;;;;5076433;28;20269;-78
2022/11/23 02:42:47;;;;;;;46.97;28.52;;;2.80;1.00;;;;;;5074510;28;20288;-79
2022/11/23 02:45:25;;;;;;;45.92;27.50;;;2.70;1.00;;;;;;5074705;28;20238;-81
2022/11/23 02:47:53;;;;;;;44.67;26.80;;;2.70;1.00;;;;;;5077649;28;20241;-79
2022/11/23 02:50:22;;;;;;;47.38;28.02;;;2.70;1.00;;;;;;5079017;28;20266;-79
2022/11/23 02:52:49;;;;;;;42.47;28.02;;;2.80;1.00;;;;;;5078625;28;20242;-82
2022/11/23 02:55:21;;;;;;;49.67;28.63;;;2.60;1.00;;;;;;5074331;28;20290;-78
2022/11/23 02:57:49;;;;;;;46.60;29.58;;;2.50;1.00;;;;;;5079678;28;20728;-79
2022/11/23 03:00:21;;;;;;;46.47;28.83;;;2.30;1.00;;;;;;5091903;27;20238;-79
2022/11/23 03:02:48;;;;;;;48.78;29.15;;;2.30;1.00;;;;;;5078656;28;20234;-79
2022/11/23 03:05:20;;;;;;;52.05;28.50;;;2.20;1.00;;;;;;5088201;28;21052;-82
2022/11/23 03:07:47;;;;;;;50.47;30.02;;;2.20;1.00;;;;;;5077954;28;20235;-80
2022/11/23 03:10:14;;;;;;;52.35;29.88;;;2.20;1.00;;;;;;5064088;28;20348;-78
2022/11/23 03:12:41;;;;;;;46.78;28.70;;;2.10;1.00;;;;;;5091608;27;20251;-80
2022/11/23 03:15:13;;;;;;;48.75;28.80;;;2.00;1.00;;;;;;5074688;27;20265;-81
2022/11/23 03:17:40;;;;;;;56.25;31.90;;;2.10;1.00;;;;;;5079160;28;20282;-81
2022/11/23 03:20:07;;;;;;;51.63;28.70;;;2.00;1.00;;;;;;5078907;28;20255;-78
2022/11/23 03:22:34;;;;;;;46.10;27.75;;;2.10;1.00;;;;;;5077966;28;20247;-81
2022/11/23 03:25:01;;;;;;;46.45;29.10;;;2.30;1.00;;;;;;5078741;28;20328;-81
2022/11/23 03:27:32;;;;;;;46.67;28.42;;;2.30;1.00;;;;;;5073269;28;20257;-81
2022/11/23 03:30:01;;;;;;;49.33;28.30;;;2.20;1.00;;;;;;5075099;28;20326;-79
2022/11/23 03:32:32;;;;;;;46.30;25.63;;;2.10;1.00;;;;;;5069369;28;20319;-79
2022/11/23 03:34:59;;;;;;;45.45;28.17;;;2.00;1.00;;;;;;5078513;28;20243;-79
2022/11/23 03:37:30;;;;;;;46.53;26.10;;;2.00;1.00;;;;;;5075531;28;20330;-79
2022/11/23 03:39:57;;;;;;;44.88;27.05;;;1.90;1.00;;;;;;5072623;28;20239;-77
2022/11/23 03:42:24;;;;;;;47.10;28.10;;;1.90;1.00;;;;;;5077771;28;20300;-77
2022/11/23 03:44:51;;;;;;;45.67;28.15;;;1.90;1.00;;;;;;5081687;27;20299;-80
2022/11/23 03:47:23;;;;;;;46.88;27.67;;;1.90;1.00;;;;;;5091776;28;21135;-80
2022/11/23 03:50:03;;;;;;;44.58;28.17;;;1.90;1.00;;;;;;5093786;28;20228;-80
2022/11/23 03:52:39;;;;;;;47.70;28.95;;;1.90;1.00;;;;;;5080239;28;20238;-81
2022/11/23 03:55:10;;;;;;;43.65;28.02;;;1.90;1.00;;;;;;5082535;28;20228;-81
2022/11/23 03:57:40;;;;;;;49.42;29.58;;;1.80;1.00;;;;;;5056780;28;20733;-80
2022/11/23 04:00:09;;;;;;;46.25;28.00;;;1.80;1.00;;;;;;5088937;28;20252;-79
2022/11/23 04:02:36;;;;;;;50.03;30.35;;;1.80;1.00;;;;;;5074405;28;20296;-80
2022/11/23 04:05:07;;;;;;;43.10;27.25;;;1.70;1.00;;;;;;5078717;28;20248;-80
2022/11/23 04:07:39;;;;;;;46.60;28.77;;;1.60;1.00;;;;;;5085096;27;20218;-80
2022/11/23 04:10:16;;;;;;;51.60;28.85;;;1.60;1.00;;;;;;5089367;28;20267;-81
2022/11/23 04:12:50;;;;;;;43.88;27.75;;;1.50;1.00;;;;;;5102976;28;21121;-80
2022/11/23 04:15:21;;;;;;;47.50;27.73;;;1.40;1.00;;;;;;5092303;28;20245;-80
2022/11/23 04:17:50;;;;;;;47.45;29.38;;;1.40;1.00;;;;;;5073058;28;20358;-81
2022/11/23 04:20:21;;;;;;;46.70;28.33;;;1.40;1.00;;;;;;5062947;28;20279;-78
2022/11/23 04:22:51;;;;;;;46.08;28.05;;;1.30;1.00;;;;;;5089316;27;20323;-79
2022/11/23 04:25:21;;;;;;;44.28;27.67;;;1.40;1.00;;;;;;5077122;27;20213;-80
2022/11/23 04:27:53;;;;;;;50.95;30.63;;;1.40;1.00;;;;;;5089477;27;20235;-79
2022/11/23 04:30:22;;;;;;;53.63;33.03;;;1.30;1.00;;;;;;5058989;28;20346;-79
2022/11/23 04:32:54;;;;;;;52.42;30.30;;;1.30;1.00;;;;;;5094973;27;20238;-81
2022/11/23 04:35:22;;;;;;;53.38;29.58;;;1.30;1.00;;;;;;5079736;28;20264;-78
2022/11/23 04:37:49;;;;;;;51.83;30.65;;;1.30;1.00;;;;;;5078796;28;20244;-77
2022/11/23 04:40:16;;;;;;;59.05;31.38;;;1.30;1.00;;;;;;5069018;28;20235;-78
2022/11/23 04:42:43;;;;;;;54.78;32.10;;;1.30;1.00;;;;;;5070081;28;20237;-80
2022/11/23 04:45:11;;;;;;;52.78;30.48;;;1.30;1.00;;;;;;5066585;28;20234;-80
2022/11/23 04:47:42;;;;;;;50.95;31.67;;;1.20;1.00;;;;;;5073861;27;20245;-77
2022/11/23 04:50:12;;;;;;;68.88;31.05;;;1.20;1.00;;;;;;5083215;28;20294;-78
2022/11/23 04:52:41;;;;;;;51.63;30.20;;;1.30;1.00;;;;;;5089501;27;20623;-81
2022/11/23 04:55:08;;;;;;;52.92;30.63;;;1.30;1.00;;;;;;5080135;28;20277;-80
2022/11/23 04:57:35;;;;;;;52.67;28.17;;;1.20;1.00;;;;;;5084179;27;20235;-83
2022/11/23 05:00:03;;;;;;;59.15;32.28;;;1.20;1.00;;;;;;5078795;27;20239;-80
2022/11/23 05:02:30;;;;;;;52.15;32.35;;;1.20;1.00;;;;;;5078692;28;20804;-80
2022/11/23 05:04:58;;;;;;;57.92;31.02;;;1.20;1.00;;;;;;5073512;28;20376;-80
2022/11/23 05:07:25;;;;;;;49.17;30.92;;;1.30;1.00;;;;;;5080863;28;20222;-80
2022/11/23 05:09:53;;;;;;;49.97;29.25;;;1.20;1.00;;;;;;5078293;28;20256;-81
2022/11/23 05:12:20;;;;;;;55.00;30.60;;;1.30;1.00;;;;;;5075006;28;20234;-81
2022/11/23 05:14:47;;;;;;;62.65;35.35;;;1.30;1.00;;;;;;5077195;28;20238;-80
2022/11/23 05:17:13;;;;;;;55.30;31.10;;;1.30;1.00;;;;;;5090466;27;20328;-80
2022/11/23 05:19:40;;;;;;;56.58;34.63;;;1.30;1.00;;;;;;5086482;28;20421;-80
2022/11/23 05:22:13;;;;;;;50.95;32.00;;;1.40;1.00;;;;;;5085843;28;20260;-81
2022/11/23 05:24:51;;;;;;;50.53;29.77;;;1.50;1.00;;;;;;5087275;28;20234;-79
2022/11/23 05:27:26;;;;;;;47.00;28.65;;;1.50;1.00;;;;;;5097995;27;20272;-77
2022/11/23 05:30:05;;;;;;;57.38;31.05;;;1.50;1.00;;;;;;5080448;27;20249;-80
2022/11/23 05:32:49;;;;;;;55.50;29.40;;;1.60;1.00;;;;;;5082415;28;20242;-80
2022/11/23 05:35:30;;;;;;;48.50;29.48;;;1.70;1.00;;;;;;5092236;27;20301;-81
2022/11/23 05:38:09;;;;;;;47.63;30.00;;;1.70;1.00;;;;;;5077971;28;20282;-81
2022/11/23 05:40:44;;;;;;;47.65;29.90;;;1.80;1.00;;;;;;5085042;28;20333;-81
2022/11/23 05:43:20;;;;;;;49.00;29.85;;;1.80;1.00;;;;;;5078200;27;20827;-82
2022/11/23 05:45:47;;;;;;;47.40;30.30;;;1.80;1.00;;;;;;5077758;28;20238;-82
2022/11/23 05:48:15;;;;;;;49.17;29.58;;;1.90;1.00;;;;;;5079121;28;20295;-79
2022/11/23 05:50:42;;;;;;;49.15;29.15;;;1.90;1.00;;;;;;5078628;28;20235;-80
2022/11/23 05:53:09;;;;;;;48.47;29.15;;;1.80;1.00;;;;;;5084674;28;20237;-80
2022/11/23 05:55:36;;;;;;;49.00;28.05;;;1.90;1.00;;;;;;5097497;27;20244;-79
2022/11/23 05:58:03;;;;;;;47.72;29.50;;;1.90;1.00;;;;;;5089947;27;20739;-80
2022/11/23 06:00:33;;;;;;;53.30;30.35;;;1.90;1.00;;;;;;5079687;28;20223;-81
2022/11/23 06:03:00;;;;;;;51.67;29.30;;;1.90;1.00;;;;;;5075277;28;20222;-80
2022/11/23 06:05:27;;;;;;;59.72;32.75;;;1.90;1.00;;;;;;5073040;28;20248;-80
2022/11/23 06:07:55;;;;;;;47.60;30.38;;;1.90;1.00;;;;;;5091296;28;20231;-81
2022/11/23 06:10:22;;;;;;;93.60;71.05;;;2.00;1.00;;;;;;5071833;28;20243;-82
2022/11/23 06:12:55;;;;;;;44.50;28.85;;;2.20;1.00;;;;;;5080185;28;21075;-81
2022/11/23 06:15:24;;;;;;;46.83;27.13;;;2.20;1.00;;;;;;5069446;28;20245;-79
2022/11/23 06:17:58;;;;;;;44.47;27.63;;;2.20;1.00;;;;;;5092393;28;20953;-81
2022/11/23 06:20:27;;;;;;;50.72;29.08;;;2.10;1.00;;;;;;5076377;28;20317;-79
2022/11/23 06:22:55;;;;;;;46.67;27.02;;;2.10;1.00;;;;;;5079267;28;20321;-82
2022/11/23 06:25:25;;;;;;;47.15;26.70;;;2.00;1.00;;;;;;5074895;28;21023;-80
2022/11/23 06:27:55;;;;;;;43.95;26.80;;;1.90;1.00;;;;;;5082575;28;20316;-82
2022/11/23 06:30:27;;;;;;;42.58;28.02;;;1.90;1.00;;;;;;5084747;28;20298;-80
2022/11/23 06:33:02;;;;;;;46.30;27.13;;;1.90;1.00;;;;;;5104483;27;20260;-83
2022/11/23 06:35:30;;;;;;;58.90;40.67;;;1.90;1.00;;;;;;5082545;27;20234;-81
2022/11/23 06:37:57;;;;;;;48.15;28.50;;;1.90;1.00;;;;;;5077837;27;20234;-81
2022/11/23 06:40:33;;;;;;;51.85;27.33;;;1.70;1.00;;;;;;5096500;28;20249;-82
2022/11/23 06:43:03;;;;;;;44.67;29.05;;;1.70;1.00;;;;;;5106091;28;20237;-82
2022/11/23 06:45:30;;;;;;;58.13;30.02;;;1.70;1.00;;;;;;5102596;27;20239;-82
2022/11/23 06:47:59;;;;;;;47.22;29.13;;;1.60;1.00;;;;;;5084767;28;20242;-84
2022/11/23 06:50:34;;;;;;;43.65;26.95;;;1.60;1.00;;;;;;5096080;27;20316;-83
2022/11/23 06:53:11;;;;;;;;;;;;;;;;;;;;;
2022/11/23 06:55:41;;;;;;;44.28;28.05;;;1.60;1.00;;;;;;5094247;27;50301;-83
2022/11/23 06:58:11;;;;;;;48.63;31.67;;;1.60;1.00;;;;;;5096254;28;20239;-85
2022/11/23 07:00:49;;;;;;;44.25;27.00;;;1.50;1.00;;;;;;5084206;28;20239;-81
2022/11/23 07:03:30;;;;;;;48.95;30.38;;;1.50;1.00;;;;;;5086007;28;20243;-81
2022/11/23 07:05:58;;;;;;;42.72;25.83;;;1.50;1.00;;;;;;5061553;28;20246;-80
2022/11/23 07:08:34;;;;;;;47.55;26.20;;;1.50;1.00;;;;;;5073142;28;20326;-82
2022/11/23 07:11:06;;;;;;;45.30;27.73;;;1.50;1.00;;;;;;5074637;28;20323;-82
2022/11/23 07:13:33;;;;;;;44.80;27.00;;;1.50;1.00;;;;;;5071787;28;20979;-80
2022/11/23 07:16:00;;;;;;;48.53;28.92;;;1.40;1.00;;;;;;5075140;28;20670;-80
2022/11/23 07:18:31;;;;;;;44.47;27.35;;;1.40;1.00;;;;;;5091893;28;20234;-80
2022/11/23 07:20:59;;;;;;;45.55;26.92;;;1.40;1.00;;;;;;5095293;28;20288;-83
2022/11/23 07:23:28;;;;;;;41.95;27.77;;;1.40;1.00;;;;;;5098617;28;20246;-78
2022/11/23 07:25:55;;;;;;;49.97;26.80;;;1.40;1.00;;;;;;5098924;28;20242;-80
2022/11/23 07:28:27;;;;;;;47.15;28.25;;;1.30;1.00;;;;;;5100077;28;20232;-80
2022/11/23 07:30:56;;;;;;;48.13;27.65;;;1.30;1.00;;;;;;5100302;28;20264;-80
2022/11/23 07:33:23;;;;;;;46.70;26.83;;;1.30;1.00;;;;;;5095309;27;20333;-78
2022/11/23 07:35:56;;;;;;;58.10;29.27;;;1.40;1.00;;;;;;5082616;28;20248;-80
2022/11/23 07:38:23;;;;;;;51.03;28.38;;;1.40;1.00;;;;;;5100513;27;21044;-82
2022/11/23 07:40:51;;;;;;;44.85;27.95;;;1.40;1.00;;;;;;5080157;28;20286;-81
2022/11/23 07:43:21;;;;;;;48.65;29.80;;;1.50;1.00;;;;;;5086244;28;20255;-78
2022/11/23 07:45:51;;;;;;;57.10;32.70;;;1.50;1.00;;;;;;5078052;28;20234;-78
2022/11/23 07:48:18;;;;;;;47.28;29.80;;;1.50;1.00;;;;;;5087786;28;20230;-80
2022/11/23 07:50:45;;;;;;;47.53;28.35;;;1.50;1.00;;;;;;5081107;28;20233;-81
2022/11/23 07:53:29;;;;;;;52.05;30.55;;;1.50;1.00;;;;;;5075597;28;20283;-78
2022/11/23 07:56:00;;;;;;;46.80;28.48;;;1.50;1.00;;;;;;5087710;28;20251;-80
2022/11/23 07:58:27;;;;;;;43.88;26.73;;;1.60;1.00;;;;;;5081580;27;20275;-80
2022/11/23 08:00:54;;;;;;;43.25;27.27;;;1.60;1.00;;;;;;5083940;28;20243;-79
2022/11/23 08:03:25;;;;;;;55.60;30.15;;;1.70;1.00;;;;;;5074820;28;21069;-80
2022/11/23 08:05:52;;;;;;;59.88;30.33;;;1.90;1.00;;;;;;5096267;28;20705;-77
2022/11/23 08:08:19;;;;;;;48.90;28.63;;;2.10;1.00;;;;;;5087614;28;20244;-79
2022/11/23 08:10:50;;;;;;;49.28;27.38;;;2.10;1.00;;;;;;5094147;27;20239;-79
2022/11/23 08:13:19;;;;;;;48.83;28.75;;;2.10;1.00;;;;;;5076625;28;20243;-78
2022/11/23 08:15:46;;;;;;;45.72;29.30;;;2.20;1.00;;;;;;5078344;28;20245;-80
2022/11/23 08:18:19;;;;;;;43.50;29.45;;;2.30;1.00;;;;;;5081623;28;20227;-80
2022/11/23 08:20:46;;;;;;;43.00;26.20;;;2.60;1.00;;;;;;5078953;28;20235;-82
2022/11/23 08:23:21;;;;;;;45.83;28.90;;;2.70;1.00;;;;;;5082578;28;20235;-80
2022/11/23 08:25:48;;;;;;;42.63;26.10;;;2.70;1.00;;;;;;5101274;28;20289;-78
2022/11/23 08:28:20;;;;;;;43.65;25.60;;;2.80;1.00;;;;;;5104518;27;20230;-81
2022/11/23 08:30:49;;;;;;;48.42;24.52;;;2.90;1.00;;;;;;5076559;28;20242;-82
2022/11/23 08:33:19;;;;;;;42.30;24.52;;;3.00;1.00;;;;;;5096213;27;20240;-82
2022/11/23 08:35:46;;;;;;;39.13;26.10;;;2.90;1.00;;;;;;5089274;28;21911;-82
2022/11/23 08:38:13;;;;;;;44.15;26.65;;;3.00;1.00;;;;;;5084364;27;20235;-82
2022/11/23 08:40:41;;;;;;;39.40;24.48;;;2.90;1.00;;;;;;5077752;28;20240;-82
2022/11/23 08:43:08;;;;;;;44.42;26.38;;;2.90;1.00;;;;;;5093242;27;20256;-82
2022/11/23 08:45:37;;;;;;;41.55;24.83;;;2.90;1.00;;;;;;5085850;28;20242;-80
2022/11/23 08:48:05;;;;;;;44.35;27.17;;;3.10;1.00;;;;;;5070128;28;20229;-78
2022/11/23 08:50:40;;;;;;;38.20;24.40;;;3.30;1.00;;;;;;5075021;28;20242;-80
2022/11/23 08:53:07;;;;;;;37.85;25.50;;;3.40;1.00;;;;;;5085080;27;20241;-80
2022/11/23 08:55:46;;;;;;;38.55;25.20;;;3.60;1.00;;;;;;5078170;28;20223;-81
2022/11/23 08:58:18;;;;;;;37.05;24.15;;;3.80;1.00;;;;;;5078014;28;20287;-80
2022/11/23 09:00:47;;;;;;;34.92;24.42;;;3.90;1.00;;;;;;5082409;28;20240;-80
2022/11/23 09:03:18;;;;;;;36.10;23.58;;;4.10;1.00;;;;;;5077203;28;20216;-80
2022/11/23 09:05:45;;;;;;;34.75;23.85;;;4.30;1.00;;;;;;5082502;28;20223;-82
2022/11/23 09:08:16;;;;;;;42.00;25.65;;;4.30;1.00;;;;;;5077475;28;20239;-79
2022/11/23 09:10:44;;;;;;;37.83;24.20;;;4.40;1.00;;;;;;5078676;28;20288;-82
2022/11/23 09:13:20;;;;;;;36.40;23.95;;;4.40;1.00;;;;;;5080772;28;20306;-81
2022/11/23 09:15:49;;;;;;;32.63;22.92;;;4.50;1.00;;;;;;5082912;28;20336;-81
2022/11/23 09:18:17;;;;;;;34.30;22.50;;;4.70;1.00;;;;;;5095059;27;20350;-80
2022/11/23 09:20:49;;;;;;;75.32;55.17;;;4.80;1.00;;;;;;5094398;27;20300;-82
2022/11/23 09:23:30;;;;;;;32.38;21.90;;;4.90;1.00;;;;;;5075706;27;20255;-82
2022/11/23 09:26:01;;;;;;;36.13;23.83;;;5.10;1.00;;;;;;5073730;28;20239;-83
2022/11/23 09:28:28;;;;;;;40.50;27.25;;;5.30;1.00;;;;;;5080929;27;20291;-83
2022/11/23 09:31:03;;;;;;;34.22;22.88;;;5.60;1.00;;;;;;5083369;27;21189;-83
2022/11/23 09:33:41;;;;;;;37.10;23.50;;;5.70;1.00;;;;;;5074640;27;20357;-83
2022/11/23 09:39:42;;;;;;;34.20;21.80;;;5.90;1.00;;;;;;5052348;28;20734;-83
2022/11/23 09:45:36;;;;;;;29.90;19.70;;;5.70;1.00;;;;;;5066466;28;20223;-82
2022/11/23 09:48:28;;;;;;;32.80;23.90;;;5.70;1.00;;;;;;5087273;28;20246;-80
2022/11/23 09:51:01;;;;;;;35.95;24.52;;;6.10;1.00;;;;;;5089881;27;20231;-83
2022/11/23 09:53:39;;;;;;;34.28;21.70;;;6.50;1.00;;;;;;5079027;28;20398;-82
2022/11/23 09:56:20;;;;;;;31.60;19.77;;;6.70;1.00;;;;;;5077349;27;20237;-79
2022/11/23 09:59:00;;;;;;;31.60;20.02;;;6.60;1.00;;;;;;5091686;27;20252;-80
2022/11/23 10:01:30;;;;;;;28.23;19.67;;;6.40;1.00;;;;;;5073016;28;20246;-79
2022/11/23 10:04:01;;;;;;;29.73;19.45;;;6.20;1.00;;;;;;5072068;28;21117;-79
2022/11/23 10:06:30;;;;;;;32.80;20.95;;;6.10;1.00;;;;;;5079229;28;20238;-81
2022/11/23 10:09:27;;;;;;;29.38;19.67;;;6.40;1.00;;;;;;5076621;28;20318;-79
2022/11/23 10:12:29;;;;;;;29.67;20.92;;;6.70;1.00;;;;;;5082413;28;20857;-79
2022/11/23 10:15:09;;;;;;;30.65;19.85;;;6.70;1.00;;;;;;5082017;27;20720;-79
2022/11/23 10:18:15;;;;;;;29.52;20.60;;;6.70;1.00;;;;;;5093057;28;20232;-79
2022/11/23 10:20:54;;;;;;;28.98;20.52;;;7.10;1.00;;;;;;5087329;27;20244;-78
2022/11/23 10:26:20;;;;;;;30.35;19.80;;;7.90;1.00;;;;;;5082136;28;20227;-81
2022/11/23 10:28:50;;;;;;;27.70;20.95;;;9.00;1.00;;;;;;5084798;28;20277;-80
2022/11/23 10:31:20;;;;;;;27.83;19.08;;;9.30;1.00;;;;;;5078479;28;20248;-79
2022/11/23 10:33:55;;;;;;;24.30;16.75;;;9.20;1.00;;;;;;5089302;28;20268;-80
2022/11/23 10:36:29;;;;;;;28.90;18.45;;;9.20;1.00;;;;;;5099681;28;20295;-79
2022/11/23 10:38:59;;;;;;;35.00;21.70;;;9.30;1.00;;;;;;5081458;28;20301;-80
2022/11/23 10:41:32;;;;;;;28.13;18.25;;;9.00;1.00;;;;;;5074866;28;20239;-80
2022/11/23 10:44:15;;;;;;;27.95;18.63;;;9.00;1.00;;;;;;5076591;28;20248;-80
2022/11/23 10:46:48;;;;;;;29.60;19.33;;;8.90;1.00;;;;;;5074249;28;20232;-80
2022/11/23 10:49:18;;;;;;;26.75;17.90;;;8.80;1.00;;;;;;5071586;28;20243;-79
2022/11/23 10:51:55;;;;;;;22.50;17.60;;;9.10;1.00;;;;;;5083815;27;20219;-79
2022/11/23 10:54:29;;;;;;;28.80;24.38;;;9.40;1.00;;;;;;5078953;27;20885;-80
2022/11/23 10:57:21;;;;;;;27.90;18.63;;;9.40;1.00;;;;;;5085294;28;20229;-81
2022/11/23 11:00:01;;;;;;;26.13;17.30;;;9.70;1.00;;;;;;5103950;27;20248;-80
2022/11/23 11:02:29;;;;;;;48.80;36.53;;;10.00;1.00;;;;;;5078450;27;20429;-82
2022/11/23 11:05:13;;;;;;;25.48;17.90;;;10.40;1.00;;;;;;5072741;28;20231;-86
2022/11/23 11:07:42;;;;;;;28.20;17.97;;;10.60;1.00;;;;;;5080220;28;20242;-84
2022/11/23 11:10:37;;;;;;;25.45;17.88;;;10.50;1.00;;;;;;5078736;28;20463;-82
2022/11/23 11:13:24;;;;;;;27.15;18.13;;;10.60;1.00;;;;;;5081357;28;21034;-84
2022/11/23 11:15:53;;;;;;;33.00;21.60;;;11.20;1.00;;;;;;5078998;28;20227;-86
2022/11/23 11:18:21;;;;;;;26.70;18.53;;;11.30;1.00;;;;;;5080557;28;20452;-85
2022/11/23 11:20:56;;;;;;;26.43;17.73;;;11.10;1.00;;;;;;5086958;28;20438;-86
2022/11/23 11:23:25;;;;;;;27.93;18.40;;;11.20;1.00;;;;;;5085933;27;20470;-85
2022/11/23 11:26:06;;;;;;;24.20;17.83;;;11.10;1.00;;;;;;5080919;28;20427;-87
2022/11/23 11:28:37;;;;;;;21.20;16.17;;;11.20;1.00;;;;;;5098089;28;20469;-83
2022/11/23 11:31:19;;;;;;;29.40;17.67;;;11.00;1.00;;;;;;5099224;28;20445;-85
2022/11/23 11:34:09;;;;;;;24.93;18.27;;;10.70;1.00;;;;;;5100012;27;20455;-85
2022/11/23 11:36:48;;;;;;;24.43;17.93;;;10.80;1.00;;;;;;5079333;28;20482;-89
2022/11/23 11:39:26;;;;;;;24.80;17.13;;;11.10;1.00;;;;;;5091871;28;20448;-81
2022/11/23 11:42:08;;;;;;;23.90;16.73;;;11.40;1.00;;;;;;5099567;27;20461;-80
2022/11/23 11:44:42;;;;;;;20.57;16.53;;;11.30;1.00;;;;;;5079451;28;20423;-80
2022/11/23 11:47:22;;;;;;;25.07;18.40;;;11.90;1.00;;;;;;5088823;28;20413;-83
2022/11/23 11:50:02;;;;;;;21.60;15.53;;;12.60;1.00;;;;;;5083846;28;20541;-81
2022/11/23 11:52:41;;;;;;;21.60;15.70;;;13.10;1.00;;;;;;5077907;28;21654;-85
2022/11/23 11:55:19;;;;;;;20.40;14.67;;;13.20;1.00;;;;;;5080665;28;20484;-86
2022/11/23 11:57:51;;;;;;;20.53;15.20;;;13.10;1.00;;;;;;5173008;22;20435;-83
2022/11/23 12:00:21;;;;;;;20.30;15.30;;;13.70;1.00;;;;;;5115767;27;20444;-82
2022/11/23 12:03:05;;;;;;;22.37;17.37;;;14.60;1.00;;;;;;5120009;27;20459;-81
2022/11/23 12:05:42;;;;;;;22.43;15.93;;;14.90;1.00;;;;;;5114379;27;20465;-84
2022/11/23 12:08:18;;;;;;;21.43;16.57;;;14.00;1.00;;;;;;5122797;27;20427;-82
2022/11/23 12:10:50;;;;;;;21.90;16.27;;;14.00;1.00;;;;;;5113342;27;20466;-85
2022/11/23 12:13:24;;;;;;;20.80;15.33;;;14.50;1.00;;;;;;5118616;27;20635;-83
2022/11/23 12:16:03;;;;;;;22.67;17.37;;;15.10;1.00;;;;;;5109293;27;20481;-85
2022/11/23 12:19:00;;;;;;;24.67;16.50;;;15.90;1.00;;;;;;5098418;27;20441;-83
2022/11/23 12:22:00;;;;;;;23.10;16.77;;;15.70;1.00;;;;;;5116884;27;20561;-81
2022/11/23 12:24:44;;;;;;;21.40;14.93;;;14.80;1.00;;;;;;5109997;27;20505;-85
2022/11/23 12:27:25;;;;;;;22.10;16.23;;;13.60;1.00;;;;;;5098626;27;21346;-82
2022/11/23 12:30:26;;;;;;;23.53;16.40;;;13.30;1.00;;;;;;5097734;27;20448;-85
2022/11/23 12:33:32;;;;;;;21.77;15.90;;;13.20;1.00;;;;;;5099288;27;20508;-84
2022/11/23 12:39:00;;;;;;;21.23;14.77;;;15.10;1.00;;;;;;5070888;26;20431;-88
2022/11/23 12:44:24;;;;;;;20.97;15.13;;;14.30;1.00;;;;;;4061312;22;20430;-85
2022/11/23 12:47:03;;;;;;;21.60;16.70;;;14.00;1.00;;;;;;5059772;28;20507;-84
2022/11/23 12:50:01;;;;;;;20.83;15.53;;;13.90;1.00;;;;;;5047405;28;20428;-80
2022/11/23 12:52:53;;;;;;;20.33;15.40;;;13.40;1.00;;;;;;5107470;22;20483;-80
2022/11/23 12:55:28;;;;;;;21.77;15.40;;;12.60;1.00;;;;;;5065182;28;20433;-87
2022/11/23 13:00:51;;;;;;;20.13;13.83;;;12.00;1.00;;;;;;5172149;22;21491;-81
2022/11/23 13:03:59;;;;;;;22.50;15.33;;;11.90;1.00;;;;;;5048737;28;20410;-82
2022/11/23 13:06:56;;;;;;;19.10;14.70;;;11.70;1.00;;;;;;5045791;28;20468;-82
2022/11/23 13:09:52;;;;;;;19.33;12.97;;;11.50;1.00;;;;;;5041600;28;20480;-81
2022/11/23 13:12:42;;;;;;;21.23;13.70;;;11.40;1.00;;;;;;5047909;28;20430;-83
2022/11/23 13:15:40;;;;;;;21.20;13.73;;;11.20;1.00;;;;;;5041503;28;20976;-82
2022/11/23 13:18:31;;;;;;;21.23;13.97;;;10.70;1.00;;;;;;5057421;28;20465;-81
2022/11/23 13:21:24;;;;;;;18.10;12.80;;;10.60;1.00;;;;;;5055068;28;20409;-82
2022/11/23 13:24:02;;;;;;;19.97;14.23;;;10.20;1.00;;;;;;5046525;28;20511;-81
2022/11/23 13:26:31;;;;;;;20.87;14.00;;;10.00;1.00;;;;;;5027387;28;20543;-80
2022/11/23 13:29:40;;;;;;;20.23;15.57;;;9.80;1.00;;;;;;5059983;28;20430;-81
2022/11/23 13:32:45;;;;;;;21.37;15.10;;;9.70;1.00;;;;;;5045829;28;20432;-83